sensor_id;sensor_type;location;lat;lon;timestamp;pressure;altitude;pressure_sealevel;temperature;humidity
16120;BME280;12670;53.502;10.252;2023-12-07T00:02:34;101344.94;;;3.34;100.00
16120;BME280;12670;53.502;10.252;2023-12-07T00:05:37;101353.72;;;3.09;100.00
16120;BME280;12670;53.502;10.252;2023-12-07T00:08:41;101361.59;;;2.98;100.00
16120;BME280;12670;53.502;10.252;2023-12-07T00:11:44;101365.06;;;2.99;100.00
16120;BME280;12670;53.502;10.252;2023-12-07T00:14:47;101352.00;;;2.88;100.00
16120;BME280;12670;53.502;10.252;2023-12-07T00:17:49;101357.22;;;2.92;100.00
16120;BME280;12670;53.502;10.252;2023-12-07T00:20:52;101361.56;;;3.19;100.00
16120;BME280;12670;53.502;10.252;2023-12-07T00:23:56;101362.47;;;3.02;100.00
16120;BME280;12670;53.502;10.252;2023-12-07T00:26:59;101361.59;;;2.97;100.00
16120;BME280;12670;53.502;10.252;2023-12-07T00:30:01;101372.94;;;3.14;100.00
16120;BME280;12670;53.502;10.252;2023-12-07T00:33:04;101374.69;;;3.09;100.00
16120;BME280;12670;53.502;10.252;2023-12-07T00:36:08;101379.03;;;3.36;100.00
16120;BME280;12670;53.502;10.252;2023-12-07T00:39:12;101371.19;;;3.20;100.00
16120;BME280;12670;53.502;10.252;2023-12-07T00:42:15;101372.88;;;3.38;100.00
16120;BME280;12670;53.502;10.252;2023-12-07T00:45:17;101365.97;;;3.01;100.00
16120;BME280;12670;53.502;10.252;2023-12-07T00:48:20;101375.56;;;2.91;100.00
16120;BME280;12670;53.502;10.252;2023-12-07T00:51:23;101385.19;;;3.06;100.00
16120;BME280;12670;53.502;10.252;2023-12-07T00:54:27;101383.44;;;3.11;100.00
16120;BME280;12670;53.502;10.252;2023-12-07T00:57:30;101386.94;;;3.11;100.00
16120;BME280;12670;53.502;10.252;2023-12-07T01:00:33;101388.66;;;3.14;100.00
16120;BME280;12670;53.502;10.252;2023-12-07T01:03:36;101386.91;;;3.04;100.00
16120;BME280;12670;53.502;10.252;2023-12-07T01:06:41;101389.53;;;3.27;100.00
16120;BME280;12670;53.502;10.252;2023-12-07T01:09:46;101386.91;;;3.20;100.00
16120;BME280;12670;53.502;10.252;2023-12-07T01:12:49;101388.69;;;3.23;100.00
16120;BME280;12670;53.502;10.252;2023-12-07T01:15:52;101393.03;;;3.09;100.00
16120;BME280;12670;53.502;10.252;2023-12-07T01:18:54;101399.16;;;3.17;100.00
16120;BME280;12670;53.502;10.252;2023-12-07T01:21:57;101404.41;;;3.17;100.00
16120;BME280;12670;53.502;10.252;2023-12-07T01:25:01;101403.53;;;3.19;100.00
16120;BME280;12670;53.502;10.252;2023-12-07T01:28:04;101423.59;;;3.37;100.00
16120;BME280;12670;53.502;10.252;2023-12-07T01:31:07;101428.88;;;3.34;100.00
16120;BME280;12670;53.502;10.252;2023-12-07T01:34:09;101429.72;;;3.04;100.00
16120;BME280;12670;53.502;10.252;2023-12-07T01:37:12;101433.22;;;3.44;100.00
16120;BME280;12670;53.502;10.252;2023-12-07T01:40:17;101430.63;;;3.29;100.00
16120;BME280;12670;53.502;10.252;2023-12-07T01:43:22;101441.13;;;3.35;100.00
16120;BME280;12670;53.502;10.252;2023-12-07T01:46:25;101434.09;;;3.33;100.00
16120;BME280;12670;53.502;10.252;2023-12-07T01:49:28;101434.97;;;3.44;100.00
16120;BME280;12670;53.502;10.252;2023-12-07T01:52:32;101435.84;;;3.41;100.00
16120;BME280;12670;53.502;10.252;2023-12-07T01:55:36;101444.59;;;3.20;100.00
16120;BME280;12670;53.502;10.252;2023-12-07T01:58:39;101445.44;;;3.39;100.00
16120;BME280;12670;53.502;10.252;2023-12-07T02:01:42;101450.69;;;3.58;100.00
16120;BME280;12670;53.502;10.252;2023-12-07T02:04:45;101450.72;;;3.47;100.00
16120;BME280;12670;53.502;10.252;2023-12-07T02:07:48;101441.09;;;3.37;100.00
16120;BME280;12670;53.502;10.252;2023-12-07T02:10:53;101447.22;;;3.36;100.00
16120;BME280;12670;53.502;10.252;2023-12-07T02:13:55;101443.72;;;3.25;100.00
16120;BME280;12670;53.502;10.252;2023-12-07T02:17:04;101437.59;;;3.36;100.00
16120;BME280;12670;53.502;10.252;2023-12-07T02:20:14;101446.31;;;3.54;100.00
16120;BME280;12670;53.502;10.252;2023-12-07T02:23:21;101443.72;;;3.21;100.00
16120;BME280;12670;53.502;10.252;2023-12-07T02:26:47;101451.59;;;3.26;100.00
16120;BME280;12670;53.502;10.252;2023-12-07T02:29:49;101447.22;;;3.36;100.00
16120;BME280;12670;53.502;10.252;2023-12-07T02:32:52;101449.84;;;3.37;100.00
16120;BME280;12670;53.502;10.252;2023-12-07T02:35:55;101446.34;;;3.05;100.00
16120;BME280;12670;53.502;10.252;2023-12-07T02:38:59;101458.59;;;3.30;100.00
16120;BME280;12670;53.502;10.252;2023-12-07T02:42:05;101456.81;;;3.38;100.00
16120;BME280;12670;53.502;10.252;2023-12-07T02:45:09;101459.44;;;3.38;100.00
16120;BME280;12670;53.502;10.252;2023-12-07T02:48:12;101464.69;;;3.40;100.00
16120;BME280;12670;53.502;10.252;2023-12-07T02:51:15;101462.09;;;3.46;100.00
16120;BME280;12670;53.502;10.252;2023-12-07T02:54:18;101458.56;;;3.48;100.00
16120;BME280;12670;53.502;10.252;2023-12-07T02:57:22;101475.19;;;3.54;100.00
16120;BME280;12670;53.502;10.252;2023-12-07T03:00:24;101467.31;;;3.38;100.00
16120;BME280;12670;53.502;10.252;2023-12-07T03:03:27;101470.84;;;3.46;100.00
16120;BME280;12670;53.502;10.252;2023-12-07T03:06:30;101476.06;;;3.43;100.00
16120;BME280;12670;53.502;10.252;2023-12-07T03:09:33;101469.94;;;3.47;100.00
16120;BME280;12670;53.502;10.252;2023-12-07T03:12:37;101473.44;;;3.42;100.00
16120;BME280;12670;53.502;10.252;2023-12-07T03:15:40;101470.81;;;3.56;100.00
16120;BME280;12670;53.502;10.252;2023-12-07T03:18:43;101473.44;;;3.50;100.00
16120;BME280;12670;53.502;10.252;2023-12-07T03:21:46;101474.31;;;3.48;100.00
16120;BME280;12670;53.502;10.252;2023-12-07T03:24:51;101481.31;;;3.43;100.00
16120;BME280;12670;53.502;10.252;2023-12-07T03:27:55;101469.94;;;3.34;100.00
16120;BME280;12670;53.502;10.252;2023-12-07T03:30:58;101483.06;;;3.47;100.00
16120;BME280;12670;53.502;10.252;2023-12-07T03:34:01;101480.44;;;3.43;100.00
16120;BME280;12670;53.502;10.252;2023-12-07T03:37:05;101483.06;;;3.38;100.00
16120;BME280;12670;53.502;10.252;2023-12-07T03:40:08;101471.69;;;3.07;100.00
16120;BME280;12670;53.502;10.252;2023-12-07T03:43:13;101478.69;;;3.08;100.00
16120;BME280;12670;53.502;10.252;2023-12-07T03:46:16;101477.84;;;3.23;100.00
16120;BME280;12670;53.502;10.252;2023-12-07T03:49:19;101475.22;;;3.17;100.00
16120;BME280;12670;53.502;10.252;2023-12-07T03:52:22;101481.31;;;3.19;100.00
16120;BME280;12670;53.502;10.252;2023-12-07T03:55:25;101489.19;;;2.99;100.00
16120;BME280;12670;53.502;10.252;2023-12-07T03:58:29;101487.44;;;3.12;100.00
16120;BME280;12670;53.502;10.252;2023-12-07T04:01:32;101481.31;;;3.16;100.00
16120;BME280;12670;53.502;10.252;2023-12-07T04:04:34;101482.19;;;3.00;100.00
16120;BME280;12670;53.502;10.252;2023-12-07T04:07:37;101481.31;;;3.16;100.00
16120;BME280;12670;53.502;10.252;2023-12-07T04:10:40;101476.94;;;3.10;100.00
16120;BME280;12670;53.502;10.252;2023-12-07T04:13:45;101485.69;;;3.17;100.00
16120;BME280;12670;53.502;10.252;2023-12-07T04:16:48;101482.19;;;3.19;100.00
16120;BME280;12670;53.502;10.252;2023-12-07T04:19:50;101497.03;;;3.27;100.00
16120;BME280;12670;53.502;10.252;2023-12-07T04:22:53;101500.53;;;3.33;100.00
16120;BME280;12670;53.502;10.252;2023-12-07T04:25:56;101498.81;;;3.35;100.00
16120;BME280;12670;53.502;10.252;2023-12-07T04:29:00;101494.44;;;3.13;100.00
16120;BME280;12670;53.502;10.252;2023-12-07T04:32:04;101494.41;;;3.20;100.00
16120;BME280;12670;53.502;10.252;2023-12-07T04:35:06;101497.06;;;3.24;100.00
16120;BME280;12670;53.502;10.252;2023-12-07T04:38:11;101490.06;;;3.24;100.00
16120;BME280;12670;53.502;10.252;2023-12-07T04:41:13;101489.19;;;3.24;100.00
16120;BME280;12670;53.502;10.252;2023-12-07T04:44:17;101498.78;;;3.32;100.00
16120;BME280;12670;53.502;10.252;2023-12-07T04:47:20;101492.69;;;3.23;100.00
16120;BME280;12670;53.502;10.252;2023-12-07T04:50:25;101508.41;;;3.38;100.00
16120;BME280;12670;53.502;10.252;2023-12-07T04:53:27;101504.06;;;3.35;100.00
16120;BME280;12670;53.502;10.252;2023-12-07T04:56:30;101508.44;;;3.47;100.00
16120;BME280;12670;53.502;10.252;2023-12-07T04:59:34;101504.03;;;3.38;100.00
16120;BME280;12670;53.502;10.252;2023-12-07T05:02:39;101509.28;;;3.32;100.00
16120;BME280;12670;53.502;10.252;2023-12-07T05:05:42;101508.44;;;3.35;100.00
16120;BME280;12670;53.502;10.252;2023-12-07T05:08:45;101512.78;;;3.37;100.00
16120;BME280;12670;53.502;10.252;2023-12-07T05:11:49;101513.66;;;3.32;100.00
16120;BME280;12670;53.502;10.252;2023-12-07T05:14:53;101518.06;;;3.40;100.00
16120;BME280;12670;53.502;10.252;2023-12-07T05:17:56;101526.75;;;3.39;100.00
16120;BME280;12670;53.502;10.252;2023-12-07T05:20:58;101524.16;;;3.44;100.00
16120;BME280;12670;53.502;10.252;2023-12-07T05:24:01;101518.03;;;3.25;100.00
16120;BME280;12670;53.502;10.252;2023-12-07T05:27:04;101522.41;;;3.18;100.00
16120;BME280;12670;53.502;10.252;2023-12-07T05:30:09;101523.28;;;3.30;100.00
16120;BME280;12670;53.502;10.252;2023-12-07T05:33:12;101534.66;;;3.42;100.00
16120;BME280;12670;53.502;10.252;2023-12-07T05:36:15;101525.03;;;3.29;100.00
16120;BME280;12670;53.502;10.252;2023-12-07T05:39:18;101524.16;;;3.33;100.00
16120;BME280;12670;53.502;10.252;2023-12-07T05:42:20;101530.28;;;3.44;100.00
16120;BME280;12670;53.502;10.252;2023-12-07T05:45:25;101532.91;;;3.41;100.00
16120;BME280;12670;53.502;10.252;2023-12-07T05:48:27;101540.75;;;3.20;100.00
16120;BME280;12670;53.502;10.252;2023-12-07T05:51:30;101544.28;;;3.36;100.00
16120;BME280;12670;53.502;10.252;2023-12-07T05:54:33;101535.53;;;3.35;100.00
16120;BME280;12670;53.502;10.252;2023-12-07T05:57:36;101543.41;;;3.35;100.00
16120;BME280;12670;53.502;10.252;2023-12-07T06:00:40;101535.53;;;3.38;100.00
16120;BME280;12670;53.502;10.252;2023-12-07T06:03:42;101540.78;;;3.46;100.00
16120;BME280;12670;53.502;10.252;2023-12-07T06:06:45;101534.66;;;3.42;100.00
16120;BME280;12670;53.502;10.252;2023-12-07T06:09:49;101529.41;;;3.30;100.00
16120;BME280;12670;53.502;10.252;2023-12-07T06:12:51;101529.41;;;3.23;100.00
16120;BME280;12670;53.502;10.252;2023-12-07T06:15:57;101535.53;;;3.29;100.00
16120;BME280;12670;53.502;10.252;2023-12-07T06:19:00;101539.00;;;3.28;100.00
16120;BME280;12670;53.502;10.252;2023-12-07T06:22:04;101538.16;;;3.31;100.00
16120;BME280;12670;53.502;10.252;2023-12-07T06:25:07;101534.66;;;3.35;100.00
16120;BME280;12670;53.502;10.252;2023-12-07T06:28:10;101539.88;;;3.39;100.00
16120;BME280;12670;53.502;10.252;2023-12-07T06:31:14;101535.53;;;3.35;100.00
16120;BME280;12670;53.502;10.252;2023-12-07T06:34:21;101544.25;;;3.28;100.00
16120;BME280;12670;53.502;10.252;2023-12-07T06:37:24;101533.78;;;3.37;100.00
16120;BME280;12670;53.502;10.252;2023-12-07T06:40:27;101553.00;;;3.36;100.00
16120;BME280;12670;53.502;10.252;2023-12-07T06:43:30;101549.53;;;3.60;100.00
16120;BME280;12670;53.502;10.252;2023-12-07T06:46:34;101551.28;;;3.54;100.00
16120;BME280;12670;53.502;10.252;2023-12-07T06:49:37;101550.41;;;3.42;100.00
16120;BME280;12670;53.502;10.252;2023-12-07T06:52:52;101560.00;;;3.31;100.00
16120;BME280;12670;53.502;10.252;2023-12-07T06:55:55;101567.00;;;3.47;100.00
16120;BME280;12670;53.502;10.252;2023-12-07T06:58:58;101564.38;;;3.57;100.00
16120;BME280;12670;53.502;10.252;2023-12-07T07:02:02;101567.91;;;3.59;100.00
16120;BME280;12670;53.502;10.252;2023-12-07T07:05:05;101574.00;;;3.53;100.00
16120;BME280;12670;53.502;10.252;2023-12-07T07:08:09;101576.63;;;3.53;100.00
16120;BME280;12670;53.502;10.252;2023-12-07T07:11:12;101571.38;;;3.56;100.00
16120;BME280;12670;53.502;10.252;2023-12-07T07:14:17;101575.75;;;3.50;100.00
16120;BME280;12670;53.502;10.252;2023-12-07T07:17:21;101573.13;;;3.62;100.00
16120;BME280;12670;53.502;10.252;2023-12-07T07:20:24;101572.25;;;3.44;100.00
16120;BME280;12670;53.502;10.252;2023-12-07T07:23:27;101575.75;;;3.48;100.00
16120;BME280;12670;53.502;10.252;2023-12-07T07:26:29;101581.88;;;3.55;100.00
16120;BME280;12670;53.502;10.252;2023-12-07T07:29:32;101586.25;;;3.71;100.00
16120;BME280;12670;53.502;10.252;2023-12-07T07:32:36;101594.13;;;3.50;100.00
16120;BME280;12670;53.502;10.252;2023-12-07T07:35:39;101588.00;;;3.52;100.00
16120;BME280;12670;53.502;10.252;2023-12-07T07:38:42;101583.63;;;3.48;100.00
16120;BME280;12670;53.502;10.252;2023-12-07T07:41:45;101584.50;;;3.48;100.00
16120;BME280;12670;53.502;10.252;2023-12-07T07:44:48;101583.63;;;3.42;100.00
16120;BME280;12670;53.502;10.252;2023-12-07T07:47:52;101583.63;;;3.36;100.00
16120;BME280;12670;53.502;10.252;2023-12-07T07:50:55;101582.75;;;3.54;100.00
16120;BME280;12670;53.502;10.252;2023-12-07T07:53:58;101587.13;;;3.48;100.00
16120;BME280;12670;53.502;10.252;2023-12-07T07:57:01;101592.38;;;3.48;100.00
16120;BME280;12670;53.502;10.252;2023-12-07T08:00:05;101589.75;;;3.55;100.00
16120;BME280;12670;53.502;10.252;2023-12-07T08:03:11;101602.88;;;3.70;100.00
16120;BME280;12670;53.502;10.252;2023-12-07T08:06:13;101598.50;;;3.60;100.00
16120;BME280;12670;53.502;10.252;2023-12-07T08:09:16;101603.75;;;3.63;100.00
16120;BME280;12670;53.502;10.252;2023-12-07T08:12:19;101605.50;;;3.76;100.00
16120;BME280;12670;53.502;10.252;2023-12-07T08:15:24;101612.53;;;3.76;100.00
16120;BME280;12670;53.502;10.252;2023-12-07T08:18:28;101616.00;;;3.70;100.00
16120;BME280;12670;53.502;10.252;2023-12-07T08:21:31;101616.00;;;3.73;100.00
16120;BME280;12670;53.502;10.252;2023-12-07T08:24:33;101626.50;;;3.70;100.00
16120;BME280;12670;53.502;10.252;2023-12-07T08:27:37;101626.47;;;3.55;100.00
16120;BME280;12670;53.502;10.252;2023-12-07T08:30:40;101632.59;;;3.54;100.00
16120;BME280;12670;53.502;10.252;2023-12-07T08:33:44;101632.59;;;3.57;100.00
16120;BME280;12670;53.502;10.252;2023-12-07T08:36:47;101632.59;;;3.51;100.00
16120;BME280;12670;53.502;10.252;2023-12-07T08:39:49;101633.47;;;3.62;100.00
16120;BME280;12670;53.502;10.252;2023-12-07T08:42:54;101634.38;;;3.67;100.00
16120;BME280;12670;53.502;10.252;2023-12-07T08:45:57;101628.25;;;3.65;100.00
16120;BME280;12670;53.502;10.252;2023-12-07T08:49:03;101636.13;;;3.60;100.00
16120;BME280;12670;53.502;10.252;2023-12-07T08:52:07;101630.00;;;3.78;100.00
16120;BME280;12670;53.502;10.252;2023-12-07T08:55:30;101630.88;;;3.74;100.00
16120;BME280;12670;53.502;10.252;2023-12-07T08:58:33;101644.00;;;3.65;100.00
16120;BME280;12670;53.502;10.252;2023-12-07T09:01:35;101636.97;;;3.55;100.00
16120;BME280;12670;53.502;10.252;2023-12-07T09:04:39;101633.50;;;3.59;100.00
16120;BME280;12670;53.502;10.252;2023-12-07T09:07:42;101632.63;;;3.58;100.00
16120;BME280;12670;53.502;10.252;2023-12-07T09:10:45;101640.47;;;3.75;100.00
16120;BME280;12670;53.502;10.252;2023-12-07T09:13:51;101644.84;;;3.74;100.00
16120;BME280;12670;53.502;10.252;2023-12-07T09:16:53;101636.13;;;3.74;100.00
16120;BME280;12670;53.502;10.252;2023-12-07T09:19:57;101643.13;;;3.78;100.00
16120;BME280;12670;53.502;10.252;2023-12-07T09:23:00;101641.38;;;3.88;100.00
16120;BME280;12670;53.502;10.252;2023-12-07T09:26:03;101649.22;;;3.74;100.00
16120;BME280;12670;53.502;10.252;2023-12-07T09:29:06;101632.63;;;3.93;100.00
16120;BME280;12670;53.502;10.252;2023-12-07T09:32:10;101632.63;;;3.95;100.00
16120;BME280;12670;53.502;10.252;2023-12-07T09:35:14;101637.00;;;3.85;100.00
16120;BME280;12670;53.502;10.252;2023-12-07T09:38:21;101645.75;;;3.90;100.00
16120;BME280;12670;53.502;10.252;2023-12-07T09:41:24;101644.00;;;3.89;100.00
16120;BME280;12670;53.502;10.252;2023-12-07T09:44:28;101646.63;;;3.91;100.00
16120;BME280;12670;53.502;10.252;2023-12-07T09:47:31;101640.50;;;3.99;100.00
16120;BME280;12670;53.502;10.252;2023-12-07T09:50:40;101643.13;;;4.07;100.00
16120;BME280;12670;53.502;10.252;2023-12-07T09:53:43;101647.53;;;3.93;100.00
16120;BME280;12670;53.502;10.252;2023-12-07T09:56:48;101643.91;;;3.28;100.00
16120;BME280;12670;53.502;10.252;2023-12-07T09:59:52;101642.25;;;3.58;100.00
16120;BME280;12670;53.502;10.252;2023-12-07T10:02:55;101645.75;;;3.77;100.00
16120;BME280;12670;53.502;10.252;2023-12-07T10:05:59;101640.50;;;3.99;100.00
16120;BME280;12670;53.502;10.252;2023-12-07T10:09:04;101640.50;;;3.90;100.00
16120;BME280;12670;53.502;10.252;2023-12-07T10:12:15;101648.38;;;3.73;100.00
16120;BME280;12670;53.502;10.252;2023-12-07T10:15:19;101651.00;;;3.86;100.00
16120;BME280;12670;53.502;10.252;2023-12-07T10:18:23;101646.63;;;4.08;100.00
16120;BME280;12670;53.502;10.252;2023-12-07T10:21:32;101656.25;;;3.98;100.00
16120;BME280;12670;53.502;10.252;2023-12-07T10:24:35;101651.88;;;3.85;100.00
16120;BME280;12670;53.502;10.252;2023-12-07T10:27:40;101651.00;;;3.86;100.00
16120;BME280;12670;53.502;10.252;2023-12-07T10:30:44;101658.00;;;4.00;100.00
16120;BME280;12670;53.502;10.252;2023-12-07T10:33:47;101656.25;;;3.92;100.00
16120;BME280;12670;53.502;10.252;2023-12-07T10:36:51;101660.63;;;3.94;100.00
16120;BME280;12670;53.502;10.252;2023-12-07T10:39:54;101657.13;;;3.95;100.00
16120;BME280;12670;53.502;10.252;2023-12-07T10:42:58;101656.25;;;4.01;100.00
16120;BME280;12670;53.502;10.252;2023-12-07T10:46:02;101651.88;;;4.03;100.00
16120;BME280;12670;53.502;10.252;2023-12-07T10:49:08;101651.00;;;4.06;100.00
16120;BME280;12670;53.502;10.252;2023-12-07T10:52:27;101638.75;;;4.05;100.00
16120;BME280;12670;53.502;10.252;2023-12-07T10:55:38;101651.00;;;3.72;100.00
16120;BME280;12670;53.502;10.252;2023-12-07T10:58:45;101649.25;;;3.83;100.00
16120;BME280;12670;53.502;10.252;2023-12-07T11:01:48;101660.63;;;3.70;100.00
16120;BME280;12670;53.502;10.252;2023-12-07T11:04:52;101663.25;;;3.82;100.00
16120;BME280;12670;53.502;10.252;2023-12-07T11:08:02;101644.88;;;3.81;100.00
16120;BME280;12670;53.502;10.252;2023-12-07T11:11:14;101655.38;;;3.94;100.00
16120;BME280;12670;53.502;10.252;2023-12-07T11:14:18;101647.50;;;4.04;100.00
16120;BME280;12670;53.502;10.252;2023-12-07T11:17:21;101655.38;;;3.96;100.00
16120;BME280;12670;53.502;10.252;2023-12-07T11:20:32;101655.38;;;3.96;100.00
16120;BME280;12670;53.502;10.252;2023-12-07T11:23:43;101647.50;;;3.88;100.00
16120;BME280;12670;53.502;10.252;2023-12-07T11:26:45;101640.50;;;3.99;100.00
16120;BME280;12670;53.502;10.252;2023-12-07T11:29:48;101640.50;;;4.09;100.00
16120;BME280;12670;53.502;10.252;2023-12-07T11:32:51;101634.38;;;4.05;100.00
16120;BME280;12670;53.502;10.252;2023-12-07T11:36:05;101632.63;;;3.90;100.00
16120;BME280;12670;53.502;10.252;2023-12-07T11:39:19;101630.00;;;3.99;100.00
16120;BME280;12670;53.502;10.252;2023-12-07T11:42:30;101631.75;;;3.76;100.00
16120;BME280;12670;53.502;10.252;2023-12-07T11:45:36;101633.50;;;3.74;100.00
16120;BME280;12670;53.502;10.252;2023-12-07T11:48:39;101634.38;;;3.90;100.00
16120;BME280;12670;53.502;10.252;2023-12-07T11:51:42;101641.38;;;3.95;100.00
16120;BME280;12670;53.502;10.252;2023-12-07T11:54:47;101626.50;;;3.91;100.00
16120;BME280;12670;53.502;10.252;2023-12-07T11:57:50;101633.47;;;3.98;100.00
16120;BME280;12670;53.502;10.252;2023-12-07T12:00:53;101630.00;;;3.99;100.00
16120;BME280;12670;53.502;10.252;2023-12-07T12:03:58;101630.84;;;4.09;100.00
16120;BME280;12670;53.502;10.252;2023-12-07T12:07:04;101626.47;;;4.04;100.00
16120;BME280;12670;53.502;10.252;2023-12-07T12:10:08;101617.72;;;3.98;100.00
16120;BME280;12670;53.502;10.252;2023-12-07T12:13:12;101623.00;;;4.01;100.00
16120;BME280;12670;53.502;10.252;2023-12-07T12:16:14;101617.75;;;3.95;100.00
16120;BME280;12670;53.502;10.252;2023-12-07T12:19:17;101614.25;;;3.96;100.00
16120;BME280;12670;53.502;10.252;2023-12-07T12:22:32;101614.25;;;3.90;100.00
16120;BME280;12670;53.502;10.252;2023-12-07T12:25:37;101601.09;;;3.92;100.00
16120;BME280;12670;53.502;10.252;2023-12-07T12:28:41;101605.50;;;4.05;100.00
16120;BME280;12670;53.502;10.252;2023-12-07T12:31:45;101603.72;;;4.09;100.00
16120;BME280;12670;53.502;10.252;2023-12-07T12:34:50;101601.13;;;3.96;100.00
16120;BME280;12670;53.502;10.252;2023-12-07T12:37:54;101605.50;;;4.07;100.00
16120;BME280;12670;53.502;10.252;2023-12-07T12:40:59;101601.09;;;4.09;100.00
16120;BME280;12670;53.502;10.252;2023-12-07T12:44:02;101600.25;;;3.91;100.00
16120;BME280;12670;53.502;10.252;2023-12-07T12:47:05;101595.88;;;3.86;100.00
16120;BME280;12670;53.502;10.252;2023-12-07T12:50:10;101597.63;;;3.88;100.00
16120;BME280;12670;53.502;10.252;2023-12-07T12:53:13;101605.47;;;4.04;100.00
16120;BME280;12670;53.502;10.252;2023-12-07T12:56:18;101604.59;;;3.92;100.00
16120;BME280;12670;53.502;10.252;2023-12-07T12:59:21;101590.63;;;3.99;100.00
16120;BME280;12670;53.502;10.252;2023-12-07T13:02:24;101589.75;;;3.94;100.00
16120;BME280;12670;53.502;10.252;2023-12-07T13:05:27;101594.13;;;3.89;100.00
16120;BME280;12670;53.502;10.252;2023-12-07T13:08:30;101585.34;;;3.92;100.00
16120;BME280;12670;53.502;10.252;2023-12-07T13:11:36;101578.38;;;3.83;100.00
16120;BME280;12670;53.502;10.252;2023-12-07T13:14:38;101581.00;;;3.95;100.00
16120;BME280;12670;53.502;10.252;2023-12-07T13:17:49;101583.59;;;3.98;100.00
16120;BME280;12670;53.502;10.252;2023-12-07T13:20:52;101579.22;;;4.07;100.00
16120;BME280;12670;53.502;10.252;2023-12-07T13:23:57;101578.34;;;4.11;100.00
16120;BME280;12670;53.502;10.252;2023-12-07T13:27:04;101577.50;;;3.93;100.00
16120;BME280;12670;53.502;10.252;2023-12-07T13:30:07;101571.38;;;3.91;100.00
16120;BME280;12670;53.502;10.252;2023-12-07T13:33:10;101570.47;;;3.98;100.00
16120;BME280;12670;53.502;10.252;2023-12-07T13:36:28;101573.97;;;3.91;100.00
16120;BME280;12670;53.502;10.252;2023-12-07T13:39:31;101564.34;;;3.98;100.00
16120;BME280;12670;53.502;10.252;2023-12-07T13:42:36;101566.13;;;4.00;100.00
16120;BME280;12670;53.502;10.252;2023-12-07T13:45:39;101572.22;;;4.06;100.00
16120;BME280;12670;53.502;10.252;2023-12-07T13:48:41;101566.09;;;3.91;100.00
16120;BME280;12670;53.502;10.252;2023-12-07T13:51:44;101552.97;;;4.04;100.00
16120;BME280;12670;53.502;10.252;2023-12-07T13:54:47;101561.75;;;3.99;100.00
16120;BME280;12670;53.502;10.252;2023-12-07T13:57:56;101553.84;;;4.06;100.00
16120;BME280;12670;53.502;10.252;2023-12-07T14:01:00;101568.72;;;3.97;100.00
16120;BME280;12670;53.502;10.252;2023-12-07T14:04:03;101567.84;;;4.06;100.00
16120;BME280;12670;53.502;10.252;2023-12-07T14:07:11;101559.97;;;3.92;100.00
16120;BME280;12670;53.502;10.252;2023-12-07T14:10:14;101570.47;;;3.97;100.00
16120;BME280;12670;53.502;10.252;2023-12-07T14:13:18;101565.25;;;3.89;100.00
16120;BME280;12670;53.502;10.252;2023-12-07T14:16:21;101564.38;;;3.93;100.00
16120;BME280;12670;53.502;10.252;2023-12-07T14:19:43;101573.13;;;3.94;100.00
16120;BME280;12670;53.502;10.252;2023-12-07T14:22:46;101569.63;;;3.89;100.00
16120;BME280;12670;53.502;10.252;2023-12-07T14:25:49;101564.34;;;3.92;100.00
16120;BME280;12670;53.502;10.252;2023-12-07T14:28:54;101557.38;;;3.88;100.00
16120;BME280;12670;53.502;10.252;2023-12-07T14:31:57;101552.13;;;3.85;100.00
16120;BME280;12670;53.502;10.252;2023-12-07T14:35:03;101554.75;;;3.83;100.00
16120;BME280;12670;53.502;10.252;2023-12-07T14:38:06;101548.63;;;3.87;100.00
16120;BME280;12670;53.502;10.252;2023-12-07T14:41:08;101553.00;;;3.85;100.00
16120;BME280;12670;53.502;10.252;2023-12-07T14:44:15;101540.75;;;3.89;100.00
16120;BME280;12670;53.502;10.252;2023-12-07T14:47:24;101548.66;;;3.81;100.00
16120;BME280;12670;53.502;10.252;2023-12-07T14:50:27;101544.25;;;3.77;100.00
16120;BME280;12670;53.502;10.252;2023-12-07T14:53:29;101554.75;;;3.83;100.00
16120;BME280;12670;53.502;10.252;2023-12-07T14:56:32;101547.78;;;3.71;100.00
16120;BME280;12670;53.502;10.252;2023-12-07T14:59:37;101558.28;;;3.76;100.00
16120;BME280;12670;53.502;10.252;2023-12-07T15:02:40;101547.75;;;3.84;100.00
16120;BME280;12670;53.502;10.252;2023-12-07T15:05:43;101553.00;;;3.82;100.00
16120;BME280;12670;53.502;10.252;2023-12-07T15:08:46;101556.50;;;3.87;100.00
16120;BME280;12670;53.502;10.252;2023-12-07T15:11:49;101560.00;;;3.77;100.00
16120;BME280;12670;53.502;10.252;2023-12-07T15:14:53;101559.13;;;3.75;100.00
16120;BME280;12670;53.502;10.252;2023-12-07T15:17:56;101566.13;;;3.81;100.00
16120;BME280;12670;53.502;10.252;2023-12-07T15:21:02;101563.50;;;3.78;100.00
16120;BME280;12670;53.502;10.252;2023-12-07T15:24:05;101563.50;;;3.73;100.00
16120;BME280;12670;53.502;10.252;2023-12-07T15:27:11;101563.53;;;3.70;100.00
16120;BME280;12670;53.502;10.252;2023-12-07T15:30:15;101555.66;;;3.70;100.00
16120;BME280;12670;53.502;10.252;2023-12-07T15:33:18;101553.00;;;3.82;100.00
16120;BME280;12670;53.502;10.252;2023-12-07T15:36:21;101546.03;;;3.81;100.00
16120;BME280;12670;53.502;10.252;2023-12-07T15:39:23;101558.28;;;3.76;100.00
16120;BME280;12670;53.502;10.252;2023-12-07T15:42:26;101557.38;;;3.95;100.00
16120;BME280;12670;53.502;10.252;2023-12-07T15:45:30;101555.59;;;3.87;100.00
16120;BME280;12670;53.502;10.252;2023-12-07T15:48:33;101556.50;;;3.89;100.00
16120;BME280;12670;53.502;10.252;2023-12-07T15:51:36;101560.88;;;3.84;100.00